Latest Weather Observations for Busselton Airport

IDW60801

Issued at 9:32 pm WST Friday 19 December 2014 (issued every 30 minutes, with the page automatically refreshed every 10 minutes)

About weather observations | Map of weather stations | Latest weather observations for WA | Other Formats
Station Details ID: 009603 Name: BUSSELTON AERO Lat: -33.69 Lon: 115.40 Height: 16.3 m
Data from the previous 72 hours. | See also: Recent months at Busselton Airport
Date/Time
WST
Temp
°C
App
Temp
°C
Dew
Point
Rel
Hum
%
Delta-T
°C
Wind Press
QNH
hPa
Press
MSL
hPa
Rain
since 9 am
mm
Dir
 
Spd
km/h
Gust
km/h
Spd
kts
Gust
kts
19/09:30pm 18.7 17.3 14.6 77 2.4 S 15 22 8 12 1011.0 1011.0 0.0
19/09:00pm 18.9 17.5 14.6 76 2.5 S 15 19 8 10 1010.7 1010.7 0.0
19/08:30pm 19.2 16.8 14.5 74 2.7 S 20 30 11 16 1010.3 1010.3 0.0
19/08:00pm 20.2 17.0 14.3 69 3.4 SSW 24 35 13 19 1010.0 1010.0 0.0
19/07:30pm 21.2 17.3 14.4 65 4.0 SSW 28 37 15 20 1009.7 1009.7 0.0
19/07:00pm 22.8 18.4 14.1 58 5.1 S 30 37 16 20 1009.7 1009.7 0.0
19/06:30pm 24.4 19.9 13.9 52 6.2 S 30 41 16 22 1009.6 1009.6 0.0
19/06:00pm 25.4 19.1 13.6 48 6.9 S 39 48 21 26 1009.6 1009.6 0.0
19/05:30pm 27.0 20.8 13.7 44 7.9 S 39 50 21 27 1009.6 1009.6 0.0
19/05:00pm 28.6 23.4 14.4 41 8.6 SSW 35 41 19 22 1009.5 1009.5 0.0
19/04:30pm 31.7 26.9 13.9 34 10.8 SSW 32 39 17 21 1009.6 1009.6 0.0
19/04:00pm 33.0 28.4 13.6 31 11.8 SSW 30 35 16 19 1009.9 1009.9 0.0
19/03:30pm 34.1 30.1 11.9 26 13.2 SW 24 32 13 17 1010.0 1010.0 0.0
19/03:00pm 35.8 31.8 0.8 11 17.6 NW 11 20 6 11 1010.0 1010.0 0.0
19/02:30pm 35.3 31.5 -0.9 10 17.7 N 9 19 5 10 1010.3 1010.3 0.0
19/02:00pm 34.6 30.1 -2.9 9 17.6 N 11 20 6 11 1010.9 1010.9 0.0
19/01:30pm 34.8 31.1 0.0 11 17.2 NNW 9 15 5 8 1011.4 1011.4 0.0
19/01:00pm 33.9 30.5 1.6 13 16.3 W 9 17 5 9 1011.8 1011.8 0.0
19/12:30pm 34.3 31.6 5.8 17 15.4 NW 9 17 5 9 1012.4 1012.4 0.0
19/12:00pm 32.1 28.9 7.0 21 13.7 NNW 13 19 7 10 1012.9 1012.9 0.0
19/11:30am 32.3 30.2 6.5 20 13.9 ENE 7 15 4 8 1013.2 1013.2 0.0
19/11:00am 31.1 28.1 7.5 23 12.9 N 13 19 7 10 1013.5 1013.5 0.0
19/10:30am 30.9 27.5 9.2 26 12.2 ENE 17 24 9 13 1013.7 1013.7 0.0
19/10:00am 29.8 26.1 9.3 28 11.4 NE 19 28 10 15 1013.9 1013.9 0.0
19/09:30am 28.6 24.7 9.3 30 10.7 E 20 32 11 17 1014.2 1014.2 0.0
19/09:00am 27.6 23.1 9.9 33 9.9 E 24 33 13 18 1014.6 1014.6 0.0
19/08:30am 26.2 21.7 8.7 33 9.5 E 22 32 12 17 1015.3 1015.3 0.0
19/08:00am 24.4 19.9 8.4 36 8.5 E 22 28 12 15 1015.5 1015.5 0.0
19/07:30am 22.4 18.3 8.5 41 7.4 E 20 28 11 15 1015.6 1015.6 0.0
19/07:00am 19.8 17.4 8.8 49 5.8 SE 11 17 6 9 1015.8 1015.8 0.0
19/06:30am 15.9 14.1 9.3 65 3.4 SSW 9 11 5 6 1015.8 1015.8 0.0
19/06:00am 12.9 11.0 9.0 77 2.0 SW 9 11 5 6 1015.8 1015.8 0.0
19/05:30am 11.6 9.2 8.5 81 1.5 SSW 11 13 6 7 1015.8 1015.8 0.0
19/05:00am 10.6 7.3 8.2 85 1.2 SSW 15 17 8 9 1015.5 1015.5 0.0
19/04:30am 12.4 10.1 9.1 80 1.7 SW 11 13 6 7 1015.6 1015.6 0.0
19/04:00am 12.3 10.5 9.3 82 1.5 SSW 9 11 5 6 1015.4 1015.4 0.0
19/03:30am 12.5 9.4 9.0 79 1.8 S 15 17 8 9 1015.1 1015.1 0.0
19/03:00am 13.3 10.7 9.4 77 2.0 S 13 17 7 9 1015.1 1015.1 0.0
19/02:30am 13.3 10.3 9.4 77 2.0 S 15 17 8 9 1015.1 1015.1 0.0
19/02:00am 13.6 10.7 9.5 76 2.1 S 15 17 8 9 1015.2 1015.2 0.0
19/01:30am 14.7 11.5 9.9 73 2.5 S 17 19 9 10 1015.3 1015.3 0.0
19/01:00am 15.1 11.9 10.1 72 2.6 S 17 19 9 10 1015.6 1015.6 0.0
19/12:30am 15.6 13.2 9.9 69 3.0 S 13 19 7 10 1015.9 1015.9 0.0
19/12:00am 15.9 13.1 10.0 68 3.1 SSE 15 20 8 11 1016.0 1016.0 0.0
 
Date/Time
WST
Temp
°C
App
Temp
°C
Dew
Point
Rel
Hum
%
Delta-T
°C
Wind Press
QNH
hPa
Press
MSL
hPa
Rain
since 9 am
mm
Dir
 
Spd
km/h
Gust
km/h
Spd
kts
Gust
kts
18/11:30pm 16.2 13.0 10.1 67 3.2 SSE 17 24 9 13 1016.3 1016.3 0.0
18/11:00pm 16.5 12.9 10.4 67 3.2 SSE 20 28 11 15 1016.5 1016.5 0.0
18/10:30pm 16.6 13.0 10.5 67 3.2 S 20 26 11 14 1016.6 1016.6 0.0
18/10:00pm 16.9 13.3 10.7 67 3.3 S 20 30 11 16 1016.7 1016.7 0.0
18/09:30pm 16.8 13.4 11.1 69 3.1 S 20 28 11 15 1016.8 1016.8 0.0
18/09:00pm 17.1 13.9 11.4 69 3.1 S 19 26 10 14 1016.8 1016.8 0.0
18/08:30pm 17.3 13.2 11.3 68 3.3 S 24 30 13 16 1016.4 1016.4 0.0
18/08:00pm 18.0 13.5 11.3 65 3.6 SSW 26 32 14 17 1016.4 1016.4 0.0
18/07:30pm 18.8 14.4 11.6 63 4.0 SSW 26 35 14 19 1016.4 1016.4 0.0
18/07:00pm 20.2 15.4 11.7 58 4.7 SSW 28 37 15 20 1016.0 1016.0 0.0
18/06:30pm 21.7 17.0 12.0 54 5.4 SSW 28 35 15 19 1015.7 1015.7 0.0
18/06:00pm 23.2 18.5 11.9 49 6.4 SSW 28 33 15 18 1015.5 1015.5 0.0
18/05:30pm 24.2 19.1 11.9 46 7.0 SSW 30 39 16 21 1015.2 1015.2 0.0
18/05:00pm 25.3 20.7 12.2 44 7.5 SSW 28 35 15 19 1015.1 1015.1 0.0
18/04:30pm 26.2 21.2 12.3 42 8.0 SSW 30 39 16 21 1015.0 1015.0 0.0
18/04:00pm 27.1 22.1 12.3 39 8.6 SW 30 43 16 23 1015.0 1015.0 0.0
18/03:30pm 27.8 24.2 11.8 37 9.2 W 22 30 12 16 1015.1 1015.1 0.0
18/03:00pm 28.0 24.6 11.1 35 9.6 WNW 20 32 11 17 1015.4 1015.4 0.0
18/02:30pm 28.2 25.4 11.3 35 9.7 NW 17 26 9 14 1015.6 1015.6 0.0
18/02:00pm 27.0 23.8 9.8 34 9.5 WNW 17 24 9 13 1015.9 1015.9 0.0
18/01:30pm 27.7 23.9 9.0 31 10.3 NNW 19 26 10 14 1016.1 1016.1 0.0
18/01:00pm 26.6 22.9 8.1 31 9.9 NW 17 26 9 14 1016.4 1016.4 0.0
18/12:30pm 25.9 22.9 7.5 31 9.8 NW 13 20 7 11 1016.8 1016.8 0.0
18/12:00pm 26.4 24.5 6.9 29 10.3 SSE 6 13 3 7 1017.1 1017.1 0.0
18/11:30am 25.4 23.3 6.6 30 9.8 ENE 7 17 4 9 1017.3 1017.3 0.0
18/11:00am 24.1 21.6 6.4 32 9.1 S 9 13 5 7 1017.7 1017.7 0.0
18/10:30am 23.2 20.6 7.7 37 8.1 E 11 20 6 11 1018.0 1018.0 0.0
18/10:00am 21.8 18.8 7.6 40 7.4 ESE 13 20 7 11 1018.3 1018.3 0.0
18/09:30am 21.4 18.3 7.3 40 7.3 ESE 13 20 7 11 1018.5 1018.5 0.0
18/09:00am 19.9 16.7 8.3 47 6.0 ESE 15 20 8 11 1018.7 1018.7 0.0
18/08:30am 19.0 15.2 8.9 52 5.3 ESE 19 26 10 14 1018.7 1018.7 0.0
18/08:00am 17.3 14.4 9.5 60 4.1 E 15 22 8 12 1018.8 1018.8 0.0
18/07:30am 15.7 13.4 9.1 65 3.4 E 11 15 6 8 1018.9 1018.9 0.0
18/07:00am 14.2 12.7 9.0 71 2.6 E 7 13 4 7 1018.8 1018.8 0.0
18/06:30am 12.2 10.8 9.0 81 1.6 NE 6 9 3 5 1018.4 1018.4 0.0
18/06:00am 9.6 7.9 8.5 93 0.5 NNE 7 7 4 4 1018.0 1018.0 0.0
18/05:30am 8.2 7.4 6.5 89 0.8 CALM 0 6 0 3 1017.6 1017.6 0.0
18/05:00am 8.0 6.4 6.5 90 0.7 SE 4 6 2 3 1017.3 1017.3 0.0
18/04:30am 8.2 6.1 6.7 90 0.7 E 7 9 4 5 1017.0 1017.0 0.0
18/04:00am 8.2 5.5 5.8 85 1.1 E 9 11 5 6 1016.8 1016.8 0.0
18/03:30am 9.0 7.8 6.6 85 1.1 NE 2 6 1 3 1016.5 1016.5 0.0
18/03:00am 11.3 9.0 7.4 77 1.9 SSE 9 11 5 6 1016.3 1016.3 0.0
18/02:30am 11.6 9.1 8.1 79 1.7 SSE 11 15 6 8 1016.1 1016.1 0.0
18/02:00am 11.5 8.9 7.6 77 1.9 SE 11 15 6 8 1016.1 1016.1 0.0
18/01:30am 12.2 8.9 7.9 75 2.1 SSE 15 17 8 9 1016.3 1016.3 0.0
18/01:00am 11.9 8.8 7.4 74 2.2 SSE 13 19 7 10 1016.4 1016.4 0.0
18/12:30am 11.9 9.2 7.4 74 2.2 SSE 11 17 6 9 1016.4 1016.4 0.0
18/12:00am 13.1 9.7 7.8 70 2.6 SSE 15 19 8 10 1016.6 1016.6 0.0
 
Date/Time
WST
Temp
°C
App
Temp
°C
Dew
Point
Rel
Hum
%
Delta-T
°C
Wind Press
QNH
hPa
Press
MSL
hPa
Rain
since 9 am
mm
Dir
 
Spd
km/h
Gust
km/h
Spd
kts
Gust
kts
17/11:30pm 13.3 10.0 8.0 70 2.6 SSE 15 24 8 13 1016.7 1016.7 0.0
17/11:00pm 13.4 9.7 7.8 69 2.8 S 17 20 9 11 1016.8 1016.8 0.0
17/10:30pm 13.7 10.3 7.7 67 3.0 S 15 19 8 10 1016.8 1016.8 0.0
17/10:00pm 13.7 10.3 7.7 67 3.0 S 15 19 8 10 1016.7 1016.7 0.0
17/09:30pm 14.3 10.0 8.0 66 3.1 S 20 26 11 14 1016.6 1016.6 0.0
17/09:00pm 14.6 10.4 8.1 65 3.2 S 20 28 11 15 1016.3 1016.3 0.0
17/08:30pm 15.0 10.7 8.0 63 3.5 SSW 20 24 11 13 1016.0 1016.0 0.0
17/08:00pm 15.8 11.8 8.1 60 3.9 SSW 19 20 10 11 1015.9 1015.9 0.0
17/07:30pm 17.0 12.4 8.2 56 4.5 SSW 22 26 12 14 1015.7 1015.7 0.0
17/07:00pm 18.2 13.6 8.2 52 5.1 S 22 30 12 16 1015.4 1015.4 0.0
17/06:30pm 19.2 14.6 8.2 49 5.7 S 22 28 12 15 1015.0 1015.0 0.0
17/06:00pm 19.9 15.0 8.3 47 6.0 S 24 35 13 19 1014.6 1014.6 0.0
17/05:30pm 20.4 14.7 8.4 46 6.3 S 28 35 15 19 1014.2 1014.2 0.0
17/05:00pm 21.3 15.4 8.9 45 6.6 S 30 39 16 21 1013.9 1013.9 0.0
17/04:30pm 22.0 16.3 8.5 42 7.1 SSW 28 35 15 19 1013.6 1013.6 0.0
17/04:00pm 22.6 16.7 9.0 42 7.3 SSW 30 39 16 21 1013.5 1013.5 0.0
17/03:30pm 22.1 17.2 8.6 42 7.1 S 24 33 13 18 1013.4 1013.4 0.0
17/03:00pm 23.0 18.2 8.7 40 7.6 S 24 33 13 18 1013.5 1013.5 0.0
17/02:30pm 23.0 19.5 8.7 40 7.6 SW 17 32 9 17 1013.3 1013.3 0.0
17/02:00pm 22.5 17.6 8.6 41 7.4 SSW 24 37 13 20 1013.5 1013.5 0.0
17/01:30pm 23.4 19.6 9.0 40 7.7 SW 19 32 10 17 1013.5 1013.5 0.0
17/01:00pm 21.7 18.1 8.2 42 7.1 SSW 17 24 9 13 1013.7 1013.7 0.0
17/12:30pm 21.6 17.5 7.8 41 7.2 SSW 19 28 10 15 1014.1 1014.1 0.0
17/12:00pm 20.6 17.4 8.3 45 6.4 S 15 30 8 16 1014.3 1014.3 0.0
17/11:30am 20.1 15.6 7.1 43 6.6 SSE 20 32 11 17 1014.6 1014.6 0.0
17/11:00am 20.1 15.6 7.1 43 6.6 SSW 20 37 11 20 1014.7 1014.7 0.0
17/10:30am 19.7 15.2 7.1 44 6.4 S 20 30 11 16 1014.5 1014.5 0.0
17/10:00am 18.5 15.6 6.7 46 5.9 S 11 19 6 10 1014.7 1014.7 0.0
17/09:30am 17.7 14.5 6.9 49 5.4 SSW 13 22 7 12 1014.7 1014.7 0.0
17/09:00am 17.2 13.1 6.4 49 5.3 S 17 24 9 13 1014.8 1014.8 0.0
17/08:30am 17.2 13.1 6.4 49 5.3 SSW 17 22 9 12 1014.7 1014.7 0.0
17/08:00am 16.6 13.4 6.7 52 4.9 SW 13 20 7 11 1014.5 1014.5 0.0
17/07:30am 16.0 13.7 7.5 57 4.2 S 9 13 5 7 1014.3 1014.3 0.0
17/07:00am 14.5 14.0 8.0 65 3.2 CALM 0 6 0 3 1014.2 1014.2 0.0
17/06:30am 12.9 11.3 8.0 72 2.4 SE 6 7 3 4 1013.8 1013.8 0.0
17/06:00am 11.4 10.9 7.7 78 1.8 CALM 0 0 0 0 1013.5 1013.5 0.0
17/05:30am 10.4 9.1 7.6 83 1.3 ESE 4 7 2 4 1013.3 1013.3 0.0
17/05:00am 9.8 7.8 7.2 84 1.2 E 7 9 4 5 1013.0 1013.0 0.0
17/04:30am 9.1 6.0 7.1 87 0.9 E 13 15 7 8 1012.7 1012.7 0.0
17/04:00am 8.0 7.3 6.8 92 0.6 CALM 0 0 0 0 1012.6 1012.6 0.0
17/03:30am 6.6 5.6 5.6 93 0.4 CALM 0 0 0 0 1012.3 1012.3 0.0
17/03:00am 6.1 4.5 4.7 91 0.6 ESE 2 9 1 5 1012.2 1012.2 0.0
17/02:30am 6.6 5.5 5.1 90 0.7 CALM 0 0 0 0 1012.2 1012.2 0.0
17/02:00am 6.8 5.7 5.0 88 0.8 CALM 0 0 0 0 1012.3 1012.3 0.0
17/01:30am 7.4 6.4 5.5 88 0.8 CALM 0 0 0 0 1012.4 1012.4 0.0
17/01:00am 7.4 6.3 5.2 86 1.0 CALM 0 0 0 0 1012.4 1012.4 0.0
17/12:30am 8.0 6.9 4.9 81 1.4 CALM 0 0 0 0 1012.5 1012.5 0.0
17/12:00am 9.4 8.5 6.1 80 1.5 CALM 0 0 0 0 1012.5 1012.5 0.0
 
Date/Time
WST
Temp
°C
App
Temp
°C
Dew
Point
Rel
Hum
%
Delta-T
°C
Wind Press
QNH
hPa
Press
MSL
hPa
Rain
since 9 am
mm
Dir
 
Spd
km/h
Gust
km/h
Spd
kts
Gust
kts
16/11:30pm 9.4 7.7 5.9 79 1.6 SSE 4 6 2 3 1012.6 1012.6 0.0
16/11:00pm 10.4 7.8 6.0 74 2.0 S 9 9 5 5 1012.9 1012.9 0.0
16/10:30pm 10.1 7.8 5.5 73 2.1 S 7 9 4 5 1013.1 1013.1 0.0
16/10:00pm 11.3 9.0 5.8 69 2.6 SSW 7 9 4 5 1013.3 1013.3 0.0

Other Formats:

Comma delimited format used in spreadsheet applications
http://www.bom.gov.au/fwo/IDW60801/IDW60801.95611.axf

JavaScript Object Notation format (JSON) in row-major order
http://www.bom.gov.au/fwo/IDW60801/IDW60801.95611.json